Time;durP1;ratioP1;P1;durP2;ratioP2;P2;SDS_P1;SDS_P2;PMS_P1;PMS_P2;Temp;Humidity;BMP_temperature;BMP_pressure;BME280_temperature;BME280_humidity;BME280_pressure;Samples;Min_cycle;Max_cycle;Signal;HPM_P1;HPM_P2
2022/04/14 00:00:28;;;;;;;18.20;14.25;;;;;;;8.13;90.30;100323.48;1770986;79;21186;-55
2022/04/14 00:03:35;;;;;;;22.17;16.00;;;;;;;8.10;90.26;100345.62;1771973;79;21197;-56
2022/04/14 00:06:41;;;;;;;20.62;14.68;;;;;;;8.07;90.33;100348.64;1769752;80;21208;-57
2022/04/14 00:09:48;;;;;;;24.30;15.63;;;;;;;8.06;90.40;100352.89;1768802;80;21185;-56
2022/04/14 00:12:55;;;;;;;21.87;14.20;;;;;;;8.05;90.36;100340.29;1769697;80;21261;-55
2022/04/14 00:16:03;;;;;;;19.70;12.98;;;;;;;8.04;90.33;100344.04;1770225;79;21185;-55
2022/04/14 00:19:09;;;;;;;23.45;13.98;;;;;;;8.03;90.29;100339.58;1758833;80;21178;-54
2022/04/14 00:22:14;;;;;;;17.95;13.60;;;;;;;8.02;90.27;100339.25;1769901;79;21185;-56
2022/04/14 00:25:20;;;;;;;20.57;14.58;;;;;;;8.01;90.24;100346.56;1768548;80;21177;-55
2022/04/14 00:28:26;;;;;;;21.37;13.38;;;;;;;8.03;90.20;100360.89;1770034;79;21221;-54
2022/04/14 00:31:35;;;;;;;18.57;12.30;;;;;;;8.03;90.02;100362.75;1762827;79;21181;-56
2022/04/14 00:34:42;;;;;;;15.30;11.85;;;;;;;8.02;89.92;100366.51;1777146;79;21190;-55
2022/04/14 00:37:47;;;;;;;15.13;12.50;;;;;;;8.00;89.89;100376.20;1794163;78;21232;-56
2022/04/14 00:40:55;;;;;;;15.70;13.18;;;;;;;8.00;89.91;100360.35;1792827;79;21161;-55
2022/04/14 00:44:03;;;;;;;17.55;13.53;;;;;;;8.01;89.86;100359.36;1792649;78;21265;-55
2022/04/14 00:47:14;;;;;;;15.20;12.35;;;;;;;8.02;89.87;100369.23;1793556;80;21193;-56
2022/04/14 00:50:19;;;;;;;18.73;12.58;;;;;;;8.01;89.73;100379.80;1767541;80;21208;-56
2022/04/14 00:53:19;;;;;;;17.23;12.63;;;;;;;8.00;89.75;100358.48;1738498;81;21237;-56
2022/04/14 00:56:25;;;;;;;16.25;12.18;;;;;;;7.98;89.79;100368.69;1781480;79;21173;-55
2022/04/14 00:59:30;;;;;;;23.85;13.85;;;;;;;7.99;89.83;100373.11;1801276;78;21188;-56
2022/04/14 01:02:38;;;;;;;17.45;12.95;;;;;;;7.98;89.89;100373.27;1801311;78;21828;-55
2022/04/14 01:05:46;;;;;;;20.57;13.08;;;;;;;8.00;90.00;100379.44;1801315;79;21343;-56
2022/04/14 01:12:17;;;;;;;20.20;13.65;;;;;;;7.99;89.91;100369.02;1776837;79;21146;-56
2022/04/14 01:15:23;;;;;;;17.15;13.30;;;;;;;8.01;89.82;100368.90;1778859;80;21212;-56
2022/04/14 01:18:28;;;;;;;17.40;12.35;;;;;;;8.03;89.81;100373.16;1719622;82;21789;-56
2022/04/14 01:21:37;;;;;;;15.50;12.13;;;;;;;8.05;89.62;100379.81;1801725;79;21504;-55
2022/04/14 01:24:44;;;;;;;19.15;12.82;;;;;;;8.01;89.54;100369.73;1801281;78;21181;-55
2022/04/14 01:27:51;;;;;;;19.67;13.15;;;;;;;8.00;89.46;100373.48;1801283;78;21157;-56
2022/04/14 01:30:57;;;;;;;15.03;10.93;;;;;;;7.97;89.28;100371.58;1801171;79;21193;-56
2022/04/14 01:34:02;;;;;;;16.67;12.15;;;;;;;7.97;89.27;100367.48;1768378;80;21249;-54
2022/04/14 01:37:09;;;;;;;16.93;12.58;;;;;;;7.97;89.24;100382.48;1778055;80;21185;-56
2022/04/14 01:40:18;;;;;;;17.67;12.10;;;;;;;7.95;89.06;100357.24;1789058;79;21681;-56
2022/04/14 01:43:25;;;;;;;15.35;11.35;;;;;;;7.92;89.00;100387.05;1789294;79;21185;-55
2022/04/14 01:46:32;;;;;;;19.00;12.82;;;;;;;7.91;88.98;100380.39;1812468;78;21212;-56
2022/04/14 01:49:38;;;;;;;16.00;11.80;;;;;;;7.89;88.92;100391.45;1812350;78;21251;-57
2022/04/14 01:52:46;;;;;;;14.47;11.28;;;;;;;7.88;88.89;100381.55;1810746;78;21177;-56
2022/04/14 01:55:51;;;;;;;17.62;12.35;;;;;;;7.89;89.00;100383.78;1801397;79;21177;-55
2022/04/14 01:58:57;;;;;;;17.35;12.63;;;;;;;7.90;89.04;100380.89;1801270;78;21208;-55
2022/04/14 02:02:03;;;;;;;15.30;11.28;;;;;;;7.92;88.95;100380.23;1777385;79;21186;-55
2022/04/14 02:05:09;;;;;;;18.10;11.08;;;;;;;7.94;88.88;100385.52;1768360;81;21221;-55
2022/04/14 02:08:15;;;;;;;16.75;11.65;;;;;;;7.93;88.79;100386.55;1768590;80;21569;-55
2022/04/14 02:11:20;;;;;;;15.65;11.85;;;;;;;7.93;88.83;100388.75;1752276;80;21178;-55
2022/04/14 02:14:26;;;;;;;15.20;11.88;;;;;;;7.95;88.83;100396.27;1770353;79;21186;-55
2022/04/14 02:17:32;;;;;;;15.78;11.53;;;;;;;7.97;88.80;100400.20;1779230;79;21245;-55
2022/04/14 02:20:39;;;;;;;14.60;11.60;;;;;;;7.97;88.67;100398.34;1760656;79;21237;-54
2022/04/14 02:23:45;;;;;;;14.07;11.15;;;;;;;7.95;88.52;100404.45;1775686;79;21189;-56
2022/04/14 02:26:51;;;;;;;16.97;11.18;;;;;;;7.94;88.51;100408.20;1723963;82;21217;-56
2022/04/14 02:29:58;;;;;;;14.18;10.30;;;;;;;7.96;88.65;100421.67;1744575;81;21212;-55
2022/04/14 02:33:04;;;;;;;15.85;10.30;;;;;;;7.98;88.59;100430.52;1744527;81;21232;-56
2022/04/14 02:36:10;;;;;;;15.20;9.85;;;;;;;7.94;88.34;100416.37;1733691;79;21233;-55
2022/04/14 02:39:16;;;;;;;15.45;11.15;;;;;;;7.88;88.31;100414.25;1754619;80;21220;-56
2022/04/14 02:42:23;;;;;;;14.23;10.75;;;;;;;7.85;88.42;100419.19;1754636;82;21252;-57
2022/04/14 02:45:29;;;;;;;14.35;10.75;;;;;;;7.85;88.62;100425.47;1754609;82;21189;-58
2022/04/14 02:48:36;;;;;;;12.23;9.53;;;;;;;7.85;88.64;100423.28;1754680;80;21336;-56
2022/04/14 02:51:45;;;;;;;16.23;10.48;;;;;;;7.87;88.83;100433.49;1754721;82;21729;-57
2022/04/14 02:54:50;;;;;;;13.30;10.35;;;;;;;7.92;88.77;100439.33;1754639;80;21283;-55
2022/04/14 02:57:57;;;;;;;15.38;10.53;;;;;;;7.90;88.61;100449.52;1754634;80;21201;-56
2022/04/14 03:01:04;;;;;;;16.12;11.28;;;;;;;7.89;88.52;100448.69;1754747;82;21193;-56
2022/04/14 03:04:12;;;;;;;14.45;10.95;;;;;;;7.88;88.57;100453.77;1754678;80;21232;-57
2022/04/14 03:07:19;;;;;;;17.80;10.45;;;;;;;7.88;88.54;100458.39;1754821;82;21192;-56
2022/04/14 03:10:27;;;;;;;12.73;9.95;;;;;;;7.84;88.54;100447.44;1727874;82;21196;-54
2022/04/14 03:13:34;;;;;;;17.82;10.88;;;;;;;7.83;88.53;100470.27;1754674;80;21192;-55
2022/04/14 03:16:40;;;;;;;14.68;10.48;;;;;;;7.79;88.46;100462.89;1735297;82;21232;-56
2022/04/14 03:19:48;;;;;;;17.65;10.43;;;;;;;7.79;88.53;100468.84;1754692;80;21263;-55
2022/04/14 03:22:53;;;;;;;13.08;10.38;;;;;;;7.80;88.64;100477.39;1725660;81;21269;-56
2022/04/14 03:26:02;;;;;;;15.03;10.15;;;;;;;7.81;88.64;100467.69;1738239;82;21237;-56
2022/04/14 03:29:10;;;;;;;12.95;10.80;;;;;;;7.82;88.68;100470.76;1728794;81;21273;-57
2022/04/14 03:32:17;;;;;;;17.25;11.00;;;;;;;7.84;88.71;100482.86;1716964;82;21193;-56
2022/04/14 03:35:25;;;;;;;17.62;10.82;;;;;;;7.87;88.67;100489.36;1735250;82;21213;-56
2022/04/14 03:38:32;;;;;;;24.95;14.85;;;;;;;7.87;88.64;100487.50;1714726;82;21261;-55
2022/04/14 03:41:39;;;;;;;14.03;10.30;;;;;;;7.90;88.60;100498.09;1769091;80;21252;-55
2022/04/14 03:44:45;;;;;;;14.25;10.25;;;;;;;7.87;88.32;100492.95;1776927;80;21252;-56
2022/04/14 03:47:51;;;;;;;14.68;10.98;;;;;;;7.82;88.29;100498.53;1787099;78;21173;-56
2022/04/14 03:50:58;;;;;;;16.37;10.80;;;;;;;7.81;88.47;100503.61;1770433;79;21626;-57
2022/04/14 03:54:04;;;;;;;15.00;10.15;;;;;;;7.79;88.43;100497.45;1770707;79;21224;-57
2022/04/14 03:57:12;;;;;;;16.82;9.95;;;;;;;7.84;88.55;100502.80;1765769;81;21193;-56
2022/04/14 04:00:19;;;;;;;12.35;9.33;;;;;;;7.88;88.49;100499.27;1758050;81;21193;-56
2022/04/14 04:03:24;;;;;;;13.30;9.08;;;;;;;7.89;88.40;100506.42;1770321;80;21742;-55
2022/04/14 04:06:30;;;;;;;13.50;10.48;;;;;;;7.89;88.23;100510.51;1768032;80;21248;-57
2022/04/14 04:09:38;;;;;;;14.13;9.55;;;;;;;7.87;88.14;100501.13;1768999;79;21186;-56
2022/04/14 04:12:44;;;;;;;15.32;10.23;;;;;;;7.88;88.26;100514.27;1757836;80;21244;-57
2022/04/14 04:15:51;;;;;;;15.32;10.38;;;;;;;7.88;88.22;100518.34;1768948;79;21185;-57
2022/04/14 04:18:57;;;;;;;14.40;10.30;;;;;;;7.91;88.11;100523.48;1767985;80;21185;-56
2022/04/14 04:22:05;;;;;;;13.83;9.70;;;;;;;7.89;88.06;100516.83;1767995;80;21205;-57
2022/04/14 04:25:11;;;;;;;16.80;10.32;;;;;;;7.88;88.03;100512.37;1767916;80;21250;-56
2022/04/14 04:28:19;;;;;;;15.78;10.03;;;;;;;7.86;88.07;100528.05;1768639;79;21213;-56
2022/04/14 04:31:25;;;;;;;12.88;9.25;;;;;;;7.83;88.09;100522.03;1767972;80;21249;-57
2022/04/14 04:34:32;;;;;;;14.58;10.80;;;;;;;7.81;88.16;100518.60;1767852;80;21228;-56
2022/04/14 04:37:37;;;;;;;14.33;11.03;;;;;;;7.80;88.28;100509.56;1767783;80;21197;-57
2022/04/14 04:40:45;;;;;;;14.38;9.98;;;;;;;7.83;88.39;100516.09;1766978;80;21694;-57
2022/04/14 04:43:50;;;;;;;14.07;10.75;;;;;;;7.88;88.46;100534.70;1756642;81;21216;-57
2022/04/14 04:46:56;;;;;;;14.70;10.43;;;;;;;7.88;88.10;100541.52;1712163;83;21233;-58
2022/04/14 04:50:06;;;;;;;14.38;9.58;;;;;;;7.82;88.01;100532.07;1731067;82;21714;-57
2022/04/14 04:53:09;;;;;;;19.77;10.55;;;;;;;7.79;88.01;100532.88;1730934;83;21797;-56
2022/04/14 04:56:19;;;;;;;17.42;12.07;;;;;;;7.77;88.08;100522.66;1738246;79;21240;-55
2022/04/14 04:59:29;;;;;;;14.13;10.68;;;;;;;7.76;88.16;100546.32;1777623;79;21222;-56
2022/04/14 05:03:04;;;;;;;14.38;10.38;;;;;;;7.77;88.22;100537.12;1770259;80;21213;-58
2022/04/14 05:06:13;;;;;;;16.80;10.35;;;;;;;7.79;88.32;100541.05;1770303;81;21229;-57
2022/04/14 05:09:20;;;;;;;14.53;10.93;;;;;;;7.83;88.32;100558.33;1760220;81;21346;-58
2022/04/14 05:12:27;;;;;;;13.90;10.32;;;;;;;7.87;88.29;100550.68;1711353;83;21872;-56
2022/04/14 05:15:35;;;;;;;15.65;10.70;;;;;;;7.89;88.25;100565.89;1702126;84;21744;-59
2022/04/14 05:18:43;;;;;;;14.10;10.23;;;;;;;7.93;88.23;100573.26;1725600;81;21419;-57
2022/04/14 05:21:51;;;;;;;14.58;10.75;;;;;;;7.93;87.85;100580.07;1730688;82;21508;-59
2022/04/14 05:25:06;;;;;;;14.50;10.28;;;;;;;7.91;87.86;100578.86;1734004;82;21235;-54
2022/04/14 05:28:21;;;;;;;15.53;10.38;;;;;;;7.94;87.77;100588.09;1733660;81;21272;-58
2022/04/14 05:31:28;;;;;;;16.93;11.83;;;;;;;7.95;87.69;100584.84;1741061;82;21782;-56
2022/04/14 05:34:35;;;;;;;13.90;10.78;;;;;;;7.97;87.51;100588.27;1781252;79;21201;-57
2022/04/14 05:37:42;;;;;;;14.45;10.58;;;;;;;7.96;87.34;100590.66;1768938;81;21729;-58
2022/04/14 05:40:55;;;;;;;12.50;9.93;;;;;;;7.97;87.47;100580.09;1768460;81;21176;-58
2022/04/14 05:44:01;;;;;;;15.68;11.00;;;;;;;8.05;87.54;100588.36;1768110;81;21280;-58
2022/04/14 05:47:07;;;;;;;15.32;10.45;;;;;;;8.15;87.51;100580.45;1785157;78;21561;-58
2022/04/14 05:50:15;;;;;;;19.48;11.00;;;;;;;8.26;87.35;100587.59;1773838;79;21232;-58
2022/04/14 05:53:20;;;;;;;13.00;10.40;;;;;;;8.31;87.05;100587.98;1777248;79;21237;-56
2022/04/14 05:56:28;;;;;;;13.43;9.73;;;;;;;8.38;86.57;100594.02;1788186;78;21236;-55
2022/04/14 05:59:34;;;;;;;16.90;10.40;;;;;;;8.36;86.13;100585.62;1767967;81;21221;-56
2022/04/14 06:02:42;;;;;;;16.05;11.08;;;;;;;8.33;86.03;100585.94;1768426;81;21495;-57
2022/04/14 06:05:47;;;;;;;15.45;10.25;;;;;;;8.39;86.28;100594.84;1771287;80;21740;-56
2022/04/14 06:08:53;;;;;;;14.50;9.43;;;;;;;8.51;86.04;100597.70;1781437;79;21590;-56
2022/04/14 06:11:59;;;;;;;13.58;10.10;;;;;;;8.54;85.68;100606.44;1718958;82;21174;-55
2022/04/14 06:15:06;;;;;;;12.90;9.83;;;;;;;8.51;85.04;100592.25;1761943;81;21197;-56
2022/04/14 06:18:13;;;;;;;14.38;10.30;;;;;;;8.51;85.17;100597.20;1738023;81;21224;-56
2022/04/14 06:21:21;;;;;;;12.88;9.35;;;;;;;8.52;84.93;100603.50;1762919;81;21729;-56
2022/04/14 06:24:27;;;;;;;14.25;10.10;;;;;;;8.51;84.83;100599.07;1738481;80;21233;-55
2022/04/14 06:27:27;;;;;;;15.58;9.40;;;;;;;8.51;84.65;100596.34;1736874;81;21205;-58
2022/04/14 06:30:23;;;;;;;14.13;9.38;;;;;;;8.56;84.76;100602.19;1734548;81;21292;-57
2022/04/14 06:33:10;;;;;;;11.83;9.23;;;;;;;8.65;84.49;100603.46;1734178;82;21758;-56
2022/04/14 06:36:04;;;;;;;11.65;8.78;;;;;;;8.73;84.44;100594.47;1792222;79;21566;-57
2022/04/14 06:38:59;;;;;;;12.55;8.60;;;;;;;8.84;84.22;100598.31;1796479;79;21199;-57
2022/04/14 06:41:52;;;;;;;15.45;9.00;;;;;;;8.95;84.04;100591.22;1804533;79;21232;-55
2022/04/14 06:45:01;;;;;;;14.63;8.43;;;;;;;9.05;83.68;100591.98;1804222;79;21749;-56
2022/04/14 06:48:08;;;;;;;12.40;8.98;;;;;;;9.07;83.20;100594.88;1808154;79;21239;-56
2022/04/14 06:51:16;;;;;;;14.30;9.05;;;;;;;9.19;83.16;100609.13;1793648;78;21530;-54
2022/04/14 06:54:23;;;;;;;12.90;8.50;;;;;;;9.31;82.57;100609.19;1804231;79;21323;-56
2022/04/14 06:57:30;;;;;;;20.62;13.70;;;;;;;9.35;81.91;100604.27;1801500;78;21209;-57
2022/04/14 07:00:43;;;;;;;10.18;8.18;;;;;;;9.50;82.15;100611.68;1783837;78;21216;-56
2022/04/14 07:03:50;;;;;;;10.80;8.15;;;;;;;9.69;81.38;100610.06;1792371;78;21240;-57
2022/04/14 07:06:58;;;;;;;12.00;8.68;;;;;;;9.72;80.25;100614.36;1800334;79;21197;-57
2022/04/14 07:10:04;;;;;;;11.83;8.05;;;;;;;9.81;80.26;100617.46;1709428;83;21594;-56
2022/04/14 07:13:11;;;;;;;11.40;8.85;;;;;;;9.93;79.45;100617.49;1739690;82;21225;-57
2022/04/14 07:16:18;;;;;;;11.22;8.10;;;;;;;9.95;79.09;100614.95;1787774;79;21197;-56
2022/04/14 07:19:28;;;;;;;11.38;7.95;;;;;;;10.11;78.79;100611.44;1732889;81;21480;-55
2022/04/14 07:22:33;;;;;;;11.22;7.92;;;;;;;10.16;77.81;100635.05;1738951;81;21225;-56
2022/04/14 07:25:41;;;;;;;9.35;8.10;;;;;;;10.16;77.35;100622.73;1737052;82;21237;-55
2022/04/14 07:28:48;;;;;;;10.40;6.67;;;;;;;10.09;77.13;100617.58;1714132;83;21236;-56
2022/04/14 07:32:01;;;;;;;7.95;6.20;;;;;;;10.11;77.21;100623.24;1715240;83;21737;-56
2022/04/14 07:35:25;;;;;;;9.55;6.92;;;;;;;10.20;77.07;100630.44;1702212;84;21252;-56
2022/04/14 07:38:32;;;;;;;10.05;7.40;;;;;;;10.31;76.68;100617.80;1732988;82;21275;-57
2022/04/14 07:41:39;;;;;;;10.80;6.85;;;;;;;10.49;76.55;100617.16;1724944;83;21693;-56
2022/04/14 07:44:46;;;;;;;10.48;6.90;;;;;;;10.61;75.90;100620.93;1718053;83;21226;-57
2022/04/14 07:48:03;;;;;;;10.23;6.87;;;;;;;10.69;75.47;100610.81;1720662;81;21207;-58
2022/04/14 07:51:21;;;;;;;9.63;6.75;;;;;;;10.75;75.30;100616.97;1697647;82;21626;-56
2022/04/14 07:54:34;;;;;;;10.32;6.80;;;;;;;10.84;75.00;100621.44;1695472;83;21259;-58
2022/04/14 07:57:38;;;;;;;8.00;5.95;;;;;;;10.92;74.37;100597.30;1698506;82;21795;-56
2022/04/14 08:00:55;;;;;;;9.03;6.50;;;;;;;11.02;74.01;100607.03;1696413;83;21742;-55
2022/04/14 08:04:20;;;;;;;8.73;6.28;;;;;;;11.16;73.75;100612.33;1655422;85;21233;-56
2022/04/14 08:07:29;;;;;;;8.00;6.65;;;;;;;11.33;73.36;100602.53;1637824;87;21756;-59
2022/04/14 08:10:42;;;;;;;;;;;;;;;11.39;72.78;100610.55;1698319;83;21650;-59
2022/04/14 08:13:54;;;;;;;8.50;5.67;;;;;;;11.39;72.00;100616.03;1637296;86;20232;-58
2022/04/14 08:17:04;;;;;;;9.73;6.67;;;;;;;11.30;72.13;100624.81;1672470;83;21265;-58
2022/04/14 08:20:10;;;;;;;7.85;6.37;;;;;;;11.34;72.71;100632.14;1689655;85;21235;-59
2022/04/14 08:23:17;;;;;;;11.12;6.70;;;;;;;11.44;72.81;100619.98;1751987;82;21229;-59
2022/04/14 08:26:29;;;;;;;7.80;5.65;;;;;;;11.56;72.86;100621.84;1695782;84;21749;-59
2022/04/14 08:29:35;;;;;;;10.95;5.72;;;;;;;11.76;72.75;100621.28;1713284;83;21223;-58
2022/04/14 08:32:36;;;;;;;6.45;5.40;;;;;;;11.92;72.20;100636.80;1721767;82;21732;-58
2022/04/14 08:35:36;;;;;;;8.48;5.97;;;;;;;11.97;71.23;100629.73;1732066;82;21247;-58
2022/04/14 08:38:43;;;;;;;6.72;5.28;;;;;;;12.01;71.11;100628.86;1694083;83;21242;-58
2022/04/14 08:41:50;;;;;;;8.83;5.10;;;;;;;11.99;70.61;100622.69;1698407;84;21223;-59
2022/04/14 08:45:07;;;;;;;7.17;4.97;;;;;;;11.95;70.84;100639.19;1690794;83;21361;-58
2022/04/14 08:48:37;;;;;;;5.90;4.80;;;;;;;12.06;70.92;100633.30;1691796;83;21270;-61
2022/04/14 08:51:52;;;;;;;8.28;5.05;;;;;;;12.19;70.78;100618.48;1670010;85;21225;-60
2022/04/14 08:55:05;;;;;;;9.15;4.62;;;;;;;12.24;70.31;100622.89;1739360;82;21321;-57
2022/04/14 08:58:13;;;;;;;9.75;5.05;;;;;;;12.20;69.45;100632.53;1716187;82;21231;-56
2022/04/14 09:01:23;;;;;;;7.42;4.62;;;;;;;12.15;69.88;100641.83;1726132;81;21298;-58
2022/04/14 09:04:31;;;;;;;6.90;5.12;;;;;;;12.19;69.61;100630.84;1723646;83;21295;-58
2022/04/14 09:07:49;;;;;;;9.88;5.60;;;;;;;12.18;69.63;100651.60;1723999;83;21231;-57
2022/04/14 09:10:56;;;;;;;8.90;5.33;;;;;;;12.19;69.78;100639.08;1752210;82;21273;-59
2022/04/14 09:14:05;;;;;;;7.47;4.70;;;;;;;12.33;69.81;100634.19;1751068;81;21348;-58
2022/04/14 09:17:12;;;;;;;9.03;4.35;;;;;;;12.47;69.18;100636.14;1753412;82;21250;-58
2022/04/14 09:20:42;;;;;;;8.53;4.42;;;;;;;12.45;69.16;100647.81;1706800;82;21285;-57
2022/04/14 09:24:01;;;;;;;6.42;3.92;;;;;;;12.37;69.42;100638.26;1722651;83;21837;-58
2022/04/14 09:27:09;;;;;;;7.42;3.92;;;;;;;12.46;69.38;100644.05;1715309;83;21261;-59
2022/04/14 09:30:55;;;;;;;6.05;4.00;;;;;;;12.46;69.26;100645.43;1694257;83;21206;-59
2022/04/14 09:34:08;;;;;;;9.80;4.55;;;;;;;12.38;69.25;100647.36;1705303;83;21269;-60
2022/04/14 09:37:17;;;;;;;6.03;4.30;;;;;;;12.31;69.02;100641.73;1664484;83;21728;-58
2022/04/14 09:40:25;;;;;;;7.12;4.20;;;;;;;12.29;69.20;100663.02;1655977;86;21208;-58
2022/04/14 09:43:30;;;;;;;5.55;4.12;;;;;;;12.24;69.24;100648.97;1661970;85;21277;-59
2022/04/14 09:46:37;;;;;;;8.60;4.22;;;;;;;12.24;69.61;100648.13;1683669;84;21782;-59
2022/04/14 09:49:54;;;;;;;7.90;4.20;;;;;;;12.37;69.80;100649.78;1684157;84;21267;-58
2022/04/14 09:56:57;;;;;;;8.98;4.83;;;;;;;12.84;69.46;100644.98;1715418;83;21152;-55
2022/04/14 09:59:55;;;;;;;6.65;3.87;;;;;;;12.97;68.53;100658.95;1705123;81;21221;-55
2022/04/14 10:03:32;;;;;;;9.78;3.80;;;;;;;12.97;68.20;100645.22;1692861;84;21287;-54
2022/04/14 10:06:40;;;;;;;5.95;3.87;;;;;;;13.05;68.03;100654.26;1723697;82;21229;-56
2022/04/14 10:10:07;;;;;;;8.13;4.25;;;;;;;13.07;68.16;100659.06;1709458;83;21271;-57
2022/04/14 10:13:17;;;;;;;8.48;4.00;;;;;;;13.12;67.92;100659.36;1721707;83;21212;-57
2022/04/14 10:16:27;;;;;;;5.90;3.77;;;;;;;13.08;67.36;100653.89;1720764;81;21208;-57
2022/04/14 10:19:40;;;;;;;7.58;4.08;;;;;;;12.90;67.17;100662.95;1695206;83;21252;-57
2022/04/14 10:22:45;;;;;;;6.28;4.20;;;;;;;12.74;67.89;100666.33;1696537;82;21189;-57
2022/04/14 10:25:53;;;;;;;5.10;3.72;;;;;;;12.76;68.44;100670.63;1714429;83;21259;-57
2022/04/14 10:29:00;;;;;;;9.23;4.17;;;;;;;12.92;67.90;100682.00;1714506;82;21258;-56
2022/04/14 10:32:06;;;;;;;6.78;4.25;;;;;;;12.93;67.64;100663.96;1740051;81;21666;-58
2022/04/14 10:35:13;;;;;;;5.87;3.98;;;;;;;12.93;67.57;100677.70;1691431;82;21413;-57
2022/04/14 10:38:29;;;;;;;9.15;5.62;;;;;;;12.92;67.97;100682.84;1719366;82;21213;-56
2022/04/14 10:41:36;;;;;;;8.58;4.78;;;;;;;12.93;67.98;100676.83;1725082;83;21706;-56
2022/04/14 10:44:55;;;;;;;5.17;3.92;;;;;;;12.85;68.05;100692.88;1720931;81;21241;-56
2022/04/14 10:48:04;;;;;;;5.55;4.10;;;;;;;12.72;67.99;100695.36;1723735;82;21223;-56
2022/04/14 10:51:33;;;;;;;5.62;4.15;;;;;;;12.57;68.21;100690.83;1732742;82;21244;-56
2022/04/14 10:54:50;;;;;;;7.40;4.22;;;;;;;12.48;68.70;100695.50;1733382;81;21249;-58
2022/04/14 10:57:55;;;;;;;7.03;4.22;;;;;;;12.57;69.29;100714.18;1710793;82;21291;-56
2022/04/14 11:01:01;;;;;;;5.78;3.92;;;;;;;12.77;69.00;100694.30;1716934;80;21191;-57
2022/04/14 11:04:09;;;;;;;7.95;4.70;;;;;;;12.83;68.40;100696.31;1742079;81;21551;-57
2022/04/14 11:07:25;;;;;;;6.03;3.95;;;;;;;12.83;68.48;100692.19;1724044;82;21176;-57
2022/04/14 11:10:33;;;;;;;7.37;4.28;;;;;;;12.92;68.64;100703.98;1706492;84;21262;-55
2022/04/14 11:14:02;;;;;;;6.72;3.77;;;;;;;13.05;68.08;100687.24;1672805;83;21259;-55
2022/04/14 11:17:11;;;;;;;6.58;4.50;;;;;;;13.26;67.67;100692.05;1707591;83;21278;-56
2022/04/14 11:20:44;;;;;;;4.25;3.83;;;;;;;13.44;67.09;100689.31;1706682;83;21222;-56
2022/04/14 11:23:51;;;;;;;6.22;3.52;;;;;;;13.67;66.61;100690.59;1708014;81;21227;-57
2022/04/14 11:27:02;;;;;;;7.70;4.40;;;;;;;13.79;65.65;100700.12;1706902;83;22101;-57
2022/04/14 11:30:18;;;;;;;5.53;4.08;;;;;;;13.84;65.29;100689.91;1726846;81;21202;-56
2022/04/14 11:33:43;;;;;;;6.78;4.20;;;;;;;13.76;64.42;100701.01;1741150;81;21230;-60
2022/04/14 11:36:50;;;;;;;5.80;4.00;;;;;;;13.67;64.86;100697.48;1733824;81;21249;-60
2022/04/14 11:40:21;;;;;;;6.25;4.08;;;;;;;13.77;64.93;100694.45;1757877;81;21229;-57
2022/04/14 11:43:29;;;;;;;7.45;4.00;;;;;;;13.89;64.88;100699.84;1708341;83;21226;-57
2022/04/14 11:46:40;;;;;;;7.42;3.85;;;;;;;14.03;64.58;100705.86;1729587;81;21262;-56
2022/04/14 11:49:49;;;;;;;6.37;4.00;;;;;;;14.10;64.74;100706.28;1706268;82;21764;-56
2022/04/14 11:52:57;;;;;;;6.40;3.90;;;;;;;14.28;64.19;100708.16;1710129;82;21263;-58
2022/04/14 11:56:10;;;;;;;6.87;4.03;;;;;;;14.35;63.22;100699.98;1735362;81;21369;-57
2022/04/14 11:59:54;;;;;;;6.22;4.87;;;;;;;14.39;63.60;100698.54;1709017;82;21360;-58
2022/04/14 12:03:03;;;;;;;7.83;4.60;;;;;;;14.45;62.89;100712.41;1695893;84;21228;-58
2022/04/14 12:06:19;;;;;;;6.22;4.35;;;;;;;14.41;63.18;100710.23;1734765;80;21217;-56
2022/04/14 12:09:27;;;;;;;4.72;3.87;;;;;;;14.39;63.27;100724.20;1714516;82;21400;-57
2022/04/14 12:12:39;;;;;;;8.30;4.70;;;;;;;14.27;62.90;100712.48;1702426;83;21741;-57
2022/04/14 12:15:46;;;;;;;6.75;4.22;;;;;;;14.30;63.19;100715.69;1711180;81;22102;-56
2022/04/14 12:19:00;;;;;;;7.53;4.70;;;;;;;14.48;63.46;100714.77;1734304;81;21217;-56
2022/04/14 12:22:08;;;;;;;7.90;4.75;;;;;;;14.79;63.62;100720.85;1726671;82;21298;-55
2022/04/14 12:25:14;;;;;;;5.35;4.10;;;;;;;15.03;62.15;100724.30;1734831;82;21199;-56
2022/04/14 12:28:21;;;;;;;5.58;4.00;;;;;;;15.09;61.46;100721.63;1736226;82;21764;-56
2022/04/14 12:31:32;;;;;;;10.08;3.92;;;;;;;15.11;61.02;100719.50;1710355;83;21250;-57
2022/04/14 12:34:42;;;;;;;8.85;4.20;;;;;;;15.05;61.47;100722.22;1730529;82;21297;-56
2022/04/14 12:37:53;;;;;;;4.97;3.58;;;;;;;15.10;61.31;100720.56;1734289;82;21233;-54
2022/04/14 12:41:12;;;;;;;6.55;4.47;;;;;;;15.19;60.64;100738.67;1771008;78;21198;-57
2022/04/14 12:44:16;;;;;;;5.67;4.25;;;;;;;15.01;60.98;100730.02;1770369;79;21280;-56
2022/04/14 12:47:21;;;;;;;8.83;4.42;;;;;;;14.80;61.27;100728.09;1807481;78;21745;-56
2022/04/14 12:50:27;;;;;;;8.68;4.62;;;;;;;14.65;62.24;100727.81;1734243;81;21242;-57
2022/04/14 12:53:36;;;;;;;6.90;4.35;;;;;;;14.58;62.40;100729.10;1715548;82;21229;-56
2022/04/14 12:56:45;;;;;;;9.58;4.92;;;;;;;14.59;63.01;100737.69;1778562;79;21308;-57
2022/04/14 13:00:18;;;;;;;6.62;4.15;;;;;;;14.55;62.91;100729.50;1800356;79;21501;-57
2022/04/14 13:03:24;;;;;;;6.40;4.37;;;;;;;14.57;63.17;100726.55;1737792;80;21206;-56
2022/04/14 13:06:29;;;;;;;7.65;4.37;;;;;;;14.59;62.83;100725.80;1737265;82;21179;-57
2022/04/14 13:09:36;;;;;;;7.50;4.67;;;;;;;14.44;63.35;100725.86;1738469;81;21375;-56
2022/04/14 13:12:52;;;;;;;6.08;4.28;;;;;;;14.39;63.91;100728.33;1763615;80;21744;-57
2022/04/14 13:16:00;;;;;;;9.90;4.97;;;;;;;14.40;63.76;100741.55;1768746;80;21317;-58
2022/04/14 13:19:11;;;;;;;8.10;4.28;;;;;;;14.47;64.02;100728.73;1766951;80;21716;-56
2022/04/14 13:22:26;;;;;;;7.67;4.75;;;;;;;14.54;63.82;100725.01;1767347;80;21356;-57
2022/04/14 13:25:35;;;;;;;7.12;4.67;;;;;;;14.60;63.63;100731.12;1767928;79;21190;-56
2022/04/14 13:28:52;;;;;;;9.88;4.78;;;;;;;14.69;63.91;100731.87;1753089;81;21782;-57
2022/04/14 13:32:03;;;;;;;8.03;5.10;;;;;;;14.72;63.84;100732.86;1767393;80;21955;-57
2022/04/14 13:35:20;;;;;;;9.10;4.97;;;;;;;14.69;63.44;100736.00;1701453;83;21241;-57
2022/04/14 13:38:27;;;;;;;6.08;4.40;;;;;;;14.70;63.84;100751.48;1688906;82;21297;-56
2022/04/14 13:41:38;;;;;;;8.48;5.05;;;;;;;14.80;62.90;100749.28;1705866;83;21295;-57
2022/04/14 13:44:45;;;;;;;8.20;4.72;;;;;;;14.82;62.77;100743.06;1764091;80;21305;-55
2022/04/14 13:47:52;;;;;;;8.20;4.78;;;;;;;14.90;62.67;100755.34;1764933;79;21200;-53
2022/04/14 13:51:00;;;;;;;6.15;4.30;;;;;;;14.93;62.20;100744.79;1756809;81;21205;-55
2022/04/14 13:54:24;;;;;;;7.47;5.30;;;;;;;14.96;62.15;100743.53;1730931;82;21260;-56
2022/04/14 13:57:31;;;;;;;7.58;4.72;;;;;;;14.98;62.23;100751.09;1729746;80;21317;-56
2022/04/14 14:00:36;;;;;;;7.47;4.85;;;;;;;15.11;62.27;100744.86;1754626;80;21226;-56
2022/04/14 14:03:44;;;;;;;9.58;4.92;;;;;;;15.28;61.75;100751.30;1738919;80;21590;-58
2022/04/14 14:06:51;;;;;;;5.12;4.15;;;;;;;15.41;61.80;100739.06;1769273;79;21504;-58
2022/04/14 14:09:57;;;;;;;6.85;4.17;;;;;;;15.50;61.05;100744.75;1773832;79;21185;-58
2022/04/14 14:13:05;;;;;;;8.63;4.95;;;;;;;15.49;61.01;100754.06;1782357;79;21198;-57
2022/04/14 14:16:12;;;;;;;5.95;4.20;;;;;;;15.45;60.83;100751.91;1799420;79;21686;-58
2022/04/14 14:19:18;;;;;;;5.45;4.30;;;;;;;15.46;60.25;100753.09;1799007;79;21848;-57
2022/04/14 14:22:25;;;;;;;8.53;4.37;;;;;;;15.46;60.32;100755.02;1798493;79;21231;-59
2022/04/14 14:25:32;;;;;;;9.48;4.87;;;;;;;15.40;60.31;100756.64;1761734;81;21186;-58
2022/04/14 14:28:40;;;;;;;7.92;5.05;;;;;;;15.32;60.47;100754.53;1755371;81;21869;-59
2022/04/14 14:31:53;;;;;;;8.73;5.40;;;;;;;15.29;60.55;100758.52;1761637;81;21206;-58
2022/04/14 14:34:59;;;;;;;8.08;5.10;;;;;;;15.25;60.96;100755.84;1755401;81;21233;-58
2022/04/14 14:38:05;;;;;;;9.40;4.85;;;;;;;15.23;61.19;100763.45;1799582;79;21817;-57
2022/04/14 14:41:13;;;;;;;7.05;4.65;;;;;;;15.14;61.08;100761.88;1760083;81;21178;-59